sensor_id;sensor_type;location;lat;lon;timestamp;pressure;altitude;pressure_sealevel;temperature;humidity
13033;BME280;6583;42.632;23.298;2024-01-07T00:01:04;69992.31;;;-146.40;91.16
13033;BME280;6583;42.632;23.298;2024-01-07T00:03:34;70016.59;;;-146.40;90.14
13033;BME280;6583;42.632;23.298;2024-01-07T00:06:00;69988.25;;;-146.40;89.90
13033;BME280;6583;42.632;23.298;2024-01-07T00:08:28;69990.28;;;-146.40;90.19
13033;BME280;6583;42.632;23.298;2024-01-07T00:10:55;69980.19;;;-146.40;88.74
13033;BME280;6583;42.632;23.298;2024-01-07T00:13:22;69990.28;;;-146.40;89.11
13033;BME280;6583;42.632;23.298;2024-01-07T00:15:48;69992.31;;;-146.40;90.78
13033;BME280;6583;42.632;23.298;2024-01-07T00:18:15;69994.34;;;-146.40;91.76
13033;BME280;6583;42.632;23.298;2024-01-07T00:20:42;69988.25;;;-146.40;92.87
13033;BME280;6583;42.632;23.298;2024-01-07T00:23:08;69992.31;;;-146.40;93.35
13033;BME280;6583;42.632;23.298;2024-01-07T00:25:36;69980.19;;;-146.40;94.13
13033;BME280;6583;42.632;23.298;2024-01-07T00:28:03;69972.09;;;-146.40;94.38
13033;BME280;6583;42.632;23.298;2024-01-07T00:30:30;69970.06;;;-146.40;94.17
13033;BME280;6583;42.632;23.298;2024-01-07T00:32:57;69953.88;;;-146.40;93.93
13033;BME280;6583;42.632;23.298;2024-01-07T00:35:23;69951.84;;;-146.40;94.06
13033;BME280;6583;42.632;23.298;2024-01-07T00:37:50;69935.66;;;-146.40;92.70
13033;BME280;6583;42.632;23.298;2024-01-07T00:40:17;69937.69;;;-146.40;91.92
13033;BME280;6583;42.632;23.298;2024-01-07T00:42:45;69939.72;;;-146.40;92.01
13033;BME280;6583;42.632;23.298;2024-01-07T00:45:11;69939.72;;;-146.40;92.33
13033;BME280;6583;42.632;23.298;2024-01-07T00:47:38;69933.66;;;-146.40;92.84
13033;BME280;6583;42.632;23.298;2024-01-07T00:50:05;69929.59;;;-146.40;92.09
13033;BME280;6583;42.632;23.298;2024-01-07T00:52:32;69927.59;;;-146.40;92.01
13033;BME280;6583;42.632;23.298;2024-01-07T00:54:59;69923.53;;;-146.40;93.16
13033;BME280;6583;42.632;23.298;2024-01-07T00:57:28;69911.41;;;-146.40;94.18
13033;BME280;6583;42.632;23.298;2024-01-07T00:59:56;69907.34;;;-146.40;94.43
13033;BME280;6583;42.632;23.298;2024-01-07T01:02:23;69897.25;;;-146.40;95.02
13033;BME280;6583;42.632;23.298;2024-01-07T01:04:50;69895.22;;;-146.40;94.93
13033;BME280;6583;42.632;23.298;2024-01-07T01:07:16;69891.16;;;-146.40;94.45
13033;BME280;6583;42.632;23.298;2024-01-07T01:09:43;69887.13;;;-146.40;94.82
13033;BME280;6583;42.632;23.298;2024-01-07T01:12:09;69883.06;;;-146.40;96.21
13033;BME280;6583;42.632;23.298;2024-01-07T01:14:36;69874.97;;;-146.40;96.62
13033;BME280;6583;42.632;23.298;2024-01-07T01:17:04;69868.91;;;-146.40;97.54
13033;BME280;6583;42.632;23.298;2024-01-07T01:19:31;69860.81;;;-146.40;97.91
13033;BME280;6583;42.632;23.298;2024-01-07T01:21:57;69858.81;;;-146.40;98.82
13033;BME280;6583;42.632;23.298;2024-01-07T01:24:24;69844.66;;;-146.40;98.07
13033;BME280;6583;42.632;23.298;2024-01-07T01:26:51;69824.41;;;-146.40;97.22
13033;BME280;6583;42.632;23.298;2024-01-07T01:29:17;69822.41;;;-146.40;97.34
13033;BME280;6583;42.632;23.298;2024-01-07T01:31:44;69812.28;;;-146.40;98.01
13033;BME280;6583;42.632;23.298;2024-01-07T01:34:12;69802.16;;;-146.40;98.37
13033;BME280;6583;42.632;23.298;2024-01-07T01:36:38;69788.00;;;-146.40;98.24
13033;BME280;6583;42.632;23.298;2024-01-07T01:39:05;69790.03;;;-146.40;97.80
13033;BME280;6583;42.632;23.298;2024-01-07T01:41:32;69783.97;;;-146.40;98.13
13033;BME280;6583;42.632;23.298;2024-01-07T01:43:59;69785.97;;;-146.40;99.20
13033;BME280;6583;42.632;23.298;2024-01-07T01:46:28;69771.81;;;-146.40;99.58
13033;BME280;6583;42.632;23.298;2024-01-07T01:48:55;69761.72;;;-146.40;99.31
13033;BME280;6583;42.632;23.298;2024-01-07T01:51:24;69745.53;;;-146.40;98.96
13033;BME280;6583;42.632;23.298;2024-01-07T01:53:51;69731.38;;;-146.40;98.65
13033;BME280;6583;42.632;23.298;2024-01-07T01:56:20;69739.47;;;-146.40;98.46
13033;BME280;6583;42.632;23.298;2024-01-07T01:58:47;69731.38;;;-146.40;99.04
13033;BME280;6583;42.632;23.298;2024-01-07T02:01:13;69723.28;;;-146.40;98.74
13033;BME280;6583;42.632;23.298;2024-01-07T02:03:40;69725.31;;;-146.40;99.34
13033;BME280;6583;42.632;23.298;2024-01-07T02:06:08;69711.13;;;-146.40;99.68
13033;BME280;6583;42.632;23.298;2024-01-07T02:08:37;69715.19;;;-146.40;100.00
13033;BME280;6583;42.632;23.298;2024-01-07T02:11:14;69715.19;;;-146.40;100.00
13033;BME280;6583;42.632;23.298;2024-01-07T02:13:42;69692.94;;;-146.40;100.00
13033;BME280;6583;42.632;23.298;2024-01-07T02:16:09;69686.88;;;-146.40;100.00
13033;BME280;6583;42.632;23.298;2024-01-07T02:18:35;69670.69;;;-146.40;100.00
13033;BME280;6583;42.632;23.298;2024-01-07T02:21:03;69644.38;;;-146.40;99.44
13033;BME280;6583;42.632;23.298;2024-01-07T02:23:30;69599.91;;;-146.40;98.73
13033;BME280;6583;42.632;23.298;2024-01-07T02:25:58;69561.47;;;-146.40;98.27
13033;BME280;6583;42.632;23.298;2024-01-07T02:28:24;69535.16;;;-146.40;97.64
13033;BME280;6583;42.632;23.298;2024-01-07T02:30:51;69525.06;;;-146.40;97.00
13033;BME280;6583;42.632;23.298;2024-01-07T02:33:18;69502.81;;;-146.40;96.81
13033;BME280;6583;42.632;23.298;2024-01-07T02:35:45;69490.66;;;-146.40;96.17
13033;BME280;6583;42.632;23.298;2024-01-07T02:38:12;69490.66;;;-146.40;95.78
13033;BME280;6583;42.632;23.298;2024-01-07T02:40:39;69506.84;;;-146.40;96.19
13033;BME280;6583;42.632;23.298;2024-01-07T02:43:08;69494.72;;;-146.40;96.44
13033;BME280;6583;42.632;23.298;2024-01-07T02:45:34;69496.75;;;-146.40;95.82
13033;BME280;6583;42.632;23.298;2024-01-07T02:48:01;69502.81;;;-146.40;96.06
13033;BME280;6583;42.632;23.298;2024-01-07T02:50:28;69498.75;;;-146.40;95.92
13033;BME280;6583;42.632;23.298;2024-01-07T02:52:54;69498.75;;;-146.40;96.14
13033;BME280;6583;42.632;23.298;2024-01-07T02:55:21;69498.75;;;-146.40;95.69
13033;BME280;6583;42.632;23.298;2024-01-07T02:57:47;69484.59;;;-146.40;95.67
13033;BME280;6583;42.632;23.298;2024-01-07T03:00:16;69492.69;;;-146.40;95.18
13033;BME280;6583;42.632;23.298;2024-01-07T03:02:44;69494.72;;;-146.40;94.78
13033;BME280;6583;42.632;23.298;2024-01-07T03:05:10;69498.75;;;-146.40;95.61
13033;BME280;6583;42.632;23.298;2024-01-07T03:07:37;69490.66;;;-146.40;94.66
13033;BME280;6583;42.632;23.298;2024-01-07T03:10:05;69498.75;;;-146.40;94.39
13033;BME280;6583;42.632;23.298;2024-01-07T03:12:32;69512.91;;;-146.40;94.48
13033;BME280;6583;42.632;23.298;2024-01-07T03:14:58;69508.88;;;-146.40;95.08
13033;BME280;6583;42.632;23.298;2024-01-07T03:17:27;69519.00;;;-146.40;97.46
13033;BME280;6583;42.632;23.298;2024-01-07T03:19:53;69525.06;;;-146.40;97.46
13033;BME280;6583;42.632;23.298;2024-01-07T03:22:20;69523.03;;;-146.40;97.98
13033;BME280;6583;42.632;23.298;2024-01-07T03:24:46;69527.06;;;-146.40;98.40
13033;BME280;6583;42.632;23.298;2024-01-07T03:27:13;69533.16;;;-146.40;99.05
13033;BME280;6583;42.632;23.298;2024-01-07T03:29:40;69531.13;;;-146.40;98.88
13033;BME280;6583;42.632;23.298;2024-01-07T03:32:07;69531.13;;;-146.40;99.64
13033;BME280;6583;42.632;23.298;2024-01-07T03:34:35;69531.13;;;-146.40;100.00
13033;BME280;6583;42.632;23.298;2024-01-07T03:37:01;69535.16;;;-146.40;100.00
13033;BME280;6583;42.632;23.298;2024-01-07T03:39:28;69527.06;;;-146.40;100.00
13033;BME280;6583;42.632;23.298;2024-01-07T03:41:55;69529.09;;;-146.40;100.00
13033;BME280;6583;42.632;23.298;2024-01-07T03:44:22;69531.13;;;-146.40;100.00
13033;BME280;6583;42.632;23.298;2024-01-07T03:46:48;69531.13;;;-146.40;100.00
13033;BME280;6583;42.632;23.298;2024-01-07T03:49:16;69523.03;;;-146.40;100.00
13033;BME280;6583;42.632;23.298;2024-01-07T03:51:44;69523.03;;;-146.40;100.00
13033;BME280;6583;42.632;23.298;2024-01-07T03:54:11;69523.03;;;-146.40;99.65
13033;BME280;6583;42.632;23.298;2024-01-07T03:56:37;69521.00;;;-146.40;99.59
13033;BME280;6583;42.632;23.298;2024-01-07T03:59:04;69527.06;;;-146.40;100.00
13033;BME280;6583;42.632;23.298;2024-01-07T04:01:31;69531.13;;;-146.40;100.00
13033;BME280;6583;42.632;23.298;2024-01-07T04:03:57;69525.06;;;-146.40;100.00
13033;BME280;6583;42.632;23.298;2024-01-07T04:06:24;69525.06;;;-146.40;100.00
13033;BME280;6583;42.632;23.298;2024-01-07T04:08:52;69535.16;;;-146.40;100.00
13033;BME280;6583;42.632;23.298;2024-01-07T04:11:18;69535.16;;;-146.40;100.00
13033;BME280;6583;42.632;23.298;2024-01-07T04:13:45;69531.13;;;-146.40;100.00
13033;BME280;6583;42.632;23.298;2024-01-07T04:16:18;69535.16;;;-146.40;100.00
13033;BME280;6583;42.632;23.298;2024-01-07T04:18:45;69529.09;;;-146.40;100.00
13033;BME280;6583;42.632;23.298;2024-01-07T04:21:11;69539.22;;;-146.40;100.00
13033;BME280;6583;42.632;23.298;2024-01-07T04:23:39;69539.22;;;-146.40;100.00
13033;BME280;6583;42.632;23.298;2024-01-07T04:26:08;69531.13;;;-146.40;100.00
13033;BME280;6583;42.632;23.298;2024-01-07T04:28:34;69519.00;;;-146.40;100.00
13033;BME280;6583;42.632;23.298;2024-01-07T04:31:01;69514.94;;;-146.40;100.00
13033;BME280;6583;42.632;23.298;2024-01-07T04:33:28;69521.00;;;-146.40;100.00
13033;BME280;6583;42.632;23.298;2024-01-07T04:35:54;69519.00;;;-146.40;100.00
13033;BME280;6583;42.632;23.298;2024-01-07T04:38:23;69519.00;;;-146.40;100.00
13033;BME280;6583;42.632;23.298;2024-01-07T04:40:50;69519.00;;;-146.40;100.00
13033;BME280;6583;42.632;23.298;2024-01-07T04:43:18;69523.03;;;-146.40;100.00
13033;BME280;6583;42.632;23.298;2024-01-07T04:45:45;69519.00;;;-146.40;100.00
13033;BME280;6583;42.632;23.298;2024-01-07T04:48:12;69523.03;;;-146.40;100.00
13033;BME280;6583;42.632;23.298;2024-01-07T04:50:39;69514.94;;;-146.40;100.00
13033;BME280;6583;42.632;23.298;2024-01-07T04:53:06;69510.91;;;-146.40;100.00
13033;BME280;6583;42.632;23.298;2024-01-07T04:55:32;69512.91;;;-146.40;100.00
13033;BME280;6583;42.632;23.298;2024-01-07T04:57:59;69527.06;;;-146.40;100.00
13033;BME280;6583;42.632;23.298;2024-01-07T05:00:28;69523.03;;;-146.40;100.00
13033;BME280;6583;42.632;23.298;2024-01-07T05:02:54;69527.06;;;-146.40;100.00
13033;BME280;6583;42.632;23.298;2024-01-07T05:05:21;69523.03;;;-146.40;100.00
13033;BME280;6583;42.632;23.298;2024-01-07T05:07:48;69516.97;;;-146.40;100.00
13033;BME280;6583;42.632;23.298;2024-01-07T05:10:14;69523.03;;;-146.40;100.00
13033;BME280;6583;42.632;23.298;2024-01-07T05:12:41;69521.00;;;-146.40;100.00
13033;BME280;6583;42.632;23.298;2024-01-07T05:15:08;69514.94;;;-146.40;100.00
13033;BME280;6583;42.632;23.298;2024-01-07T05:17:36;69510.91;;;-146.40;100.00
13033;BME280;6583;42.632;23.298;2024-01-07T05:20:04;69516.97;;;-146.40;100.00
13033;BME280;6583;42.632;23.298;2024-01-07T05:22:31;69502.81;;;-146.40;100.00
13033;BME280;6583;42.632;23.298;2024-01-07T05:24:58;69504.84;;;-146.40;100.00
13033;BME280;6583;42.632;23.298;2024-01-07T05:27:25;69508.88;;;-146.40;100.00
13033;BME280;6583;42.632;23.298;2024-01-07T05:29:51;69510.91;;;-146.40;100.00
13033;BME280;6583;42.632;23.298;2024-01-07T05:32:20;69516.97;;;-146.40;100.00
13033;BME280;6583;42.632;23.298;2024-01-07T05:34:48;69533.16;;;-146.40;100.00
13033;BME280;6583;42.632;23.298;2024-01-07T05:37:15;69529.09;;;-146.40;100.00
13033;BME280;6583;42.632;23.298;2024-01-07T05:39:42;69527.06;;;-146.40;100.00
13033;BME280;6583;42.632;23.298;2024-01-07T05:42:09;69514.94;;;-146.40;100.00
13033;BME280;6583;42.632;23.298;2024-01-07T05:44:36;69506.84;;;-146.40;100.00
13033;BME280;6583;42.632;23.298;2024-01-07T05:47:03;69506.84;;;-146.40;100.00
13033;BME280;6583;42.632;23.298;2024-01-07T05:49:30;69506.84;;;-146.40;100.00
13033;BME280;6583;42.632;23.298;2024-01-07T05:51:58;69539.22;;;-146.40;100.00
13033;BME280;6583;42.632;23.298;2024-01-07T05:54:24;69571.56;;;-146.40;100.00
13033;BME280;6583;42.632;23.298;2024-01-07T05:56:51;69553.38;;;-146.40;100.00
13033;BME280;6583;42.632;23.298;2024-01-07T05:59:18;69571.56;;;-146.40;100.00
13033;BME280;6583;42.632;23.298;2024-01-07T06:01:44;69569.56;;;-146.40;100.00
13033;BME280;6583;42.632;23.298;2024-01-07T06:04:11;69579.66;;;-146.40;100.00
13033;BME280;6583;42.632;23.298;2024-01-07T06:06:38;69577.66;;;-146.40;100.00
13033;BME280;6583;42.632;23.298;2024-01-07T06:09:06;69563.47;;;-146.40;100.00
13033;BME280;6583;42.632;23.298;2024-01-07T06:11:33;69555.41;;;-146.40;100.00
13033;BME280;6583;42.632;23.298;2024-01-07T06:13:59;69551.34;;;-146.40;100.00
13033;BME280;6583;42.632;23.298;2024-01-07T06:16:26;69555.41;;;-146.40;100.00
13033;BME280;6583;42.632;23.298;2024-01-07T06:18:53;69555.41;;;-146.40;100.00
13033;BME280;6583;42.632;23.298;2024-01-07T06:21:19;69543.25;;;-146.40;100.00
13033;BME280;6583;42.632;23.298;2024-01-07T06:23:46;69545.28;;;-146.40;100.00
13033;BME280;6583;42.632;23.298;2024-01-07T06:26:14;69543.25;;;-146.40;100.00
13033;BME280;6583;42.632;23.298;2024-01-07T06:28:41;69555.41;;;-146.40;100.00
13033;BME280;6583;42.632;23.298;2024-01-07T06:31:08;69547.31;;;-146.40;100.00
13033;BME280;6583;42.632;23.298;2024-01-07T06:33:34;69549.31;;;-146.40;100.00
13033;BME280;6583;42.632;23.298;2024-01-07T06:36:01;69549.31;;;-146.40;100.00
13033;BME280;6583;42.632;23.298;2024-01-07T06:38:28;69559.44;;;-146.40;100.00
13033;BME280;6583;42.632;23.298;2024-01-07T06:40:55;69555.41;;;-146.40;100.00
13033;BME280;6583;42.632;23.298;2024-01-07T06:43:27;69573.59;;;-146.40;100.00
13033;BME280;6583;42.632;23.298;2024-01-07T06:45:54;69571.56;;;-146.40;100.00
13033;BME280;6583;42.632;23.298;2024-01-07T06:48:20;69571.56;;;-146.40;100.00
13033;BME280;6583;42.632;23.298;2024-01-07T06:50:47;69563.47;;;-146.40;100.00
13033;BME280;6583;42.632;23.298;2024-01-07T06:53:14;69569.56;;;-146.40;100.00
13033;BME280;6583;42.632;23.298;2024-01-07T06:55:41;69579.66;;;-146.40;100.00
13033;BME280;6583;42.632;23.298;2024-01-07T06:58:08;69559.44;;;-146.40;100.00
13033;BME280;6583;42.632;23.298;2024-01-07T07:00:36;69577.66;;;-146.40;100.00
13033;BME280;6583;42.632;23.298;2024-01-07T07:03:03;69579.66;;;-146.40;100.00
13033;BME280;6583;42.632;23.298;2024-01-07T07:05:30;69567.53;;;-146.40;100.00
13033;BME280;6583;42.632;23.298;2024-01-07T07:07:57;69573.59;;;-146.40;100.00
13033;BME280;6583;42.632;23.298;2024-01-07T07:10:24;69569.56;;;-146.40;100.00
13033;BME280;6583;42.632;23.298;2024-01-07T07:12:50;69573.59;;;-146.40;100.00
13033;BME280;6583;42.632;23.298;2024-01-07T07:15:17;69571.56;;;-146.40;100.00
13033;BME280;6583;42.632;23.298;2024-01-07T07:17:45;69561.47;;;-146.40;100.00
13033;BME280;6583;42.632;23.298;2024-01-07T07:20:12;69563.47;;;-146.40;100.00
13033;BME280;6583;42.632;23.298;2024-01-07T07:22:38;69563.47;;;-146.40;100.00
13033;BME280;6583;42.632;23.298;2024-01-07T07:25:06;69555.41;;;-146.40;100.00
13033;BME280;6583;42.632;23.298;2024-01-07T07:27:32;69563.47;;;-146.40;100.00
13033;BME280;6583;42.632;23.298;2024-01-07T07:29:59;69567.53;;;-146.40;100.00
13033;BME280;6583;42.632;23.298;2024-01-07T07:32:26;69575.63;;;-146.40;100.00
13033;BME280;6583;42.632;23.298;2024-01-07T07:34:54;69591.81;;;-146.40;100.00
13033;BME280;6583;42.632;23.298;2024-01-07T07:37:20;69567.53;;;-146.40;100.00
13033;BME280;6583;42.632;23.298;2024-01-07T07:39:47;69545.28;;;-146.40;100.00
13033;BME280;6583;42.632;23.298;2024-01-07T07:42:14;69539.22;;;-146.40;100.00
13033;BME280;6583;42.632;23.298;2024-01-07T07:44:41;69553.38;;;-146.40;100.00
13033;BME280;6583;42.632;23.298;2024-01-07T07:47:09;69555.41;;;-146.40;100.00
13033;BME280;6583;42.632;23.298;2024-01-07T07:49:37;69557.41;;;-146.40;100.00
13033;BME280;6583;42.632;23.298;2024-01-07T07:52:06;69549.31;;;-146.40;100.00
13033;BME280;6583;42.632;23.298;2024-01-07T07:54:33;69535.16;;;-146.40;100.00
13033;BME280;6583;42.632;23.298;2024-01-07T07:57:00;69539.22;;;-146.40;100.00
13033;BME280;6583;42.632;23.298;2024-01-07T07:59:29;69539.22;;;-146.40;100.00
13033;BME280;6583;42.632;23.298;2024-01-07T08:01:56;69537.19;;;-146.40;100.00
13033;BME280;6583;42.632;23.298;2024-01-07T08:04:22;69535.16;;;-146.40;100.00
13033;BME280;6583;42.632;23.298;2024-01-07T08:06:49;69521.00;;;-146.40;100.00
13033;BME280;6583;42.632;23.298;2024-01-07T08:09:17;69533.16;;;-146.40;100.00
13033;BME280;6583;42.632;23.298;2024-01-07T08:11:44;69514.94;;;-146.40;100.00
13033;BME280;6583;42.632;23.298;2024-01-07T08:14:10;69506.84;;;-146.40;100.00
13033;BME280;6583;42.632;23.298;2024-01-07T08:16:37;69521.00;;;-146.40;100.00
13033;BME280;6583;42.632;23.298;2024-01-07T08:19:04;69514.94;;;-146.40;100.00
13033;BME280;6583;42.632;23.298;2024-01-07T08:21:30;69500.78;;;-146.40;100.00
13033;BME280;6583;42.632;23.298;2024-01-07T08:23:57;69510.91;;;-146.40;100.00
13033;BME280;6583;42.632;23.298;2024-01-07T08:26:25;69494.72;;;-146.40;100.00
13033;BME280;6583;42.632;23.298;2024-01-07T08:28:51;69480.56;;;-146.40;100.00
13033;BME280;6583;42.632;23.298;2024-01-07T08:31:18;69484.59;;;-146.40;100.00
13033;BME280;6583;42.632;23.298;2024-01-07T08:33:45;69488.66;;;-146.40;100.00
13033;BME280;6583;42.632;23.298;2024-01-07T08:36:12;69488.66;;;-146.40;100.00
13033;BME280;6583;42.632;23.298;2024-01-07T08:38:38;69490.66;;;-146.40;99.68
13033;BME280;6583;42.632;23.298;2024-01-07T08:41:05;69486.63;;;-146.40;99.19
13033;BME280;6583;42.632;23.298;2024-01-07T08:43:33;69514.94;;;-146.40;99.75
13033;BME280;6583;42.632;23.298;2024-01-07T08:46:00;69523.03;;;-146.40;100.00
13033;BME280;6583;42.632;23.298;2024-01-07T08:48:26;69510.91;;;-146.40;100.00
13033;BME280;6583;42.632;23.298;2024-01-07T08:50:54;69498.75;;;-146.40;100.00
13033;BME280;6583;42.632;23.298;2024-01-07T08:53:21;69492.69;;;-146.40;100.00
13033;BME280;6583;42.632;23.298;2024-01-07T08:55:48;69462.34;;;-146.40;100.00
13033;BME280;6583;42.632;23.298;2024-01-07T08:58:15;69466.41;;;-146.40;99.50
13033;BME280;6583;42.632;23.298;2024-01-07T09:00:43;69468.44;;;-146.40;99.57
13033;BME280;6583;42.632;23.298;2024-01-07T09:03:10;69462.34;;;-146.40;99.91
13033;BME280;6583;42.632;23.298;2024-01-07T09:05:37;69456.28;;;-146.40;100.00
13033;BME280;6583;42.632;23.298;2024-01-07T09:08:04;69452.25;;;-146.40;99.40
13033;BME280;6583;42.632;23.298;2024-01-07T09:10:32;69464.38;;;-146.40;99.45
13033;BME280;6583;42.632;23.298;2024-01-07T09:12:59;69462.34;;;-146.40;99.94
13033;BME280;6583;42.632;23.298;2024-01-07T09:15:25;69466.41;;;-146.40;100.00
13033;BME280;6583;42.632;23.298;2024-01-07T09:17:53;69454.25;;;-146.40;100.00
13033;BME280;6583;42.632;23.298;2024-01-07T09:20:20;69436.06;;;-146.40;100.00
13033;BME280;6583;42.632;23.298;2024-01-07T09:22:47;69438.09;;;-146.40;100.00
13033;BME280;6583;42.632;23.298;2024-01-07T09:25:13;69432.03;;;-146.40;100.00
13033;BME280;6583;42.632;23.298;2024-01-07T09:27:40;69427.97;;;-146.40;100.00
13033;BME280;6583;42.632;23.298;2024-01-07T09:30:07;69430.00;;;-146.40;100.00
13033;BME280;6583;42.632;23.298;2024-01-07T09:32:36;69452.25;;;-146.40;100.00
13033;BME280;6583;42.632;23.298;2024-01-07T09:35:05;69446.19;;;-146.40;100.00
13033;BME280;6583;42.632;23.298;2024-01-07T09:37:32;69442.13;;;-146.40;100.00
13033;BME280;6583;42.632;23.298;2024-01-07T09:39:58;69425.94;;;-146.40;100.00
13033;BME280;6583;42.632;23.298;2024-01-07T09:42:25;69411.78;;;-146.40;100.00
13033;BME280;6583;42.632;23.298;2024-01-07T09:44:52;69413.81;;;-146.40;100.00
13033;BME280;6583;42.632;23.298;2024-01-07T09:47:19;69409.78;;;-146.40;100.00
13033;BME280;6583;42.632;23.298;2024-01-07T09:49:46;69395.59;;;-146.40;100.00
13033;BME280;6583;42.632;23.298;2024-01-07T09:52:14;69393.59;;;-146.40;99.65
13033;BME280;6583;42.632;23.298;2024-01-07T09:54:47;69387.53;;;-146.40;99.30
13033;BME280;6583;42.632;23.298;2024-01-07T09:57:17;69379.44;;;-146.40;99.44
13033;BME280;6583;42.632;23.298;2024-01-07T09:59:45;69385.50;;;-146.40;99.97
13033;BME280;6583;42.632;23.298;2024-01-07T10:02:12;69373.38;;;-146.40;99.73
13033;BME280;6583;42.632;23.298;2024-01-07T10:04:40;69373.38;;;-146.40;99.11
13033;BME280;6583;42.632;23.298;2024-01-07T10:07:06;69373.38;;;-146.40;99.49
13033;BME280;6583;42.632;23.298;2024-01-07T10:09:34;69361.22;;;-146.40;97.96
13033;BME280;6583;42.632;23.298;2024-01-07T10:12:01;69367.28;;;-146.40;98.25
13033;BME280;6583;42.632;23.298;2024-01-07T10:14:29;69373.38;;;-146.40;98.84
13033;BME280;6583;42.632;23.298;2024-01-07T10:16:55;69369.31;;;-146.40;98.98
13033;BME280;6583;42.632;23.298;2024-01-07T10:19:24;69365.28;;;-146.40;99.18
13033;BME280;6583;42.632;23.298;2024-01-07T10:22:00;69349.09;;;-146.40;98.28
13033;BME280;6583;42.632;23.298;2024-01-07T10:24:26;69343.03;;;-146.40;98.41
13033;BME280;6583;42.632;23.298;2024-01-07T10:26:55;69357.19;;;-146.40;98.22
13033;BME280;6583;42.632;23.298;2024-01-07T10:29:22;69363.25;;;-146.40;98.40
13033;BME280;6583;42.632;23.298;2024-01-07T10:31:48;69357.19;;;-146.40;98.66
13033;BME280;6583;42.632;23.298;2024-01-07T10:34:16;69336.97;;;-146.40;98.67
13033;BME280;6583;42.632;23.298;2024-01-07T10:36:44;69345.03;;;-146.40;98.68
13033;BME280;6583;42.632;23.298;2024-01-07T10:39:12;69347.06;;;-146.40;98.71
13033;BME280;6583;42.632;23.298;2024-01-07T10:41:41;69341.00;;;-146.40;98.22
13033;BME280;6583;42.632;23.298;2024-01-07T10:44:10;69332.91;;;-146.40;97.33
13033;BME280;6583;42.632;23.298;2024-01-07T10:46:37;69353.13;;;-146.40;96.94
13033;BME280;6583;42.632;23.298;2024-01-07T10:49:07;69351.13;;;-146.40;97.36
13033;BME280;6583;42.632;23.298;2024-01-07T10:51:39;69343.03;;;-146.40;96.26
13033;BME280;6583;42.632;23.298;2024-01-07T10:54:07;69336.97;;;-146.40;96.22
13033;BME280;6583;42.632;23.298;2024-01-07T10:56:39;69334.94;;;-146.40;95.81
13033;BME280;6583;42.632;23.298;2024-01-07T10:59:13;69324.81;;;-146.40;95.40
13033;BME280;6583;42.632;23.298;2024-01-07T11:01:39;69314.72;;;-146.40;94.67
13033;BME280;6583;42.632;23.298;2024-01-07T11:04:12;69312.69;;;-146.40;94.40
13033;BME280;6583;42.632;23.298;2024-01-07T11:06:46;69336.97;;;-146.40;93.15
13033;BME280;6583;42.632;23.298;2024-01-07T11:09:20;69349.09;;;-146.40;92.24
13033;BME280;6583;42.632;23.298;2024-01-07T11:11:49;69347.06;;;-146.40;92.16
13033;BME280;6583;42.632;23.298;2024-01-07T11:14:36;69341.00;;;-146.40;91.91
13033;BME280;6583;42.632;23.298;2024-01-07T11:17:05;69336.97;;;-146.40;91.34
13033;BME280;6583;42.632;23.298;2024-01-07T11:19:31;69332.91;;;-146.40;91.43
13033;BME280;6583;42.632;23.298;2024-01-07T11:22:22;69349.09;;;-146.40;90.81
13033;BME280;6583;42.632;23.298;2024-01-07T11:24:50;69341.00;;;-146.40;90.65
13033;BME280;6583;42.632;23.298;2024-01-07T11:27:17;69343.03;;;-146.40;91.12
13033;BME280;6583;42.632;23.298;2024-01-07T11:29:52;69336.97;;;-146.40;91.53
13033;BME280;6583;42.632;23.298;2024-01-07T11:32:22;69326.84;;;-146.40;90.71
13033;BME280;6583;42.632;23.298;2024-01-07T11:34:49;69328.88;;;-146.40;91.63
13033;BME280;6583;42.632;23.298;2024-01-07T11:37:19;69310.66;;;-146.40;92.55
13033;BME280;6583;42.632;23.298;2024-01-07T11:39:46;69300.56;;;-146.40;92.18
13033;BME280;6583;42.632;23.298;2024-01-07T11:42:13;69312.69;;;-146.40;92.55
13033;BME280;6583;42.632;23.298;2024-01-07T11:44:46;69324.81;;;-146.40;91.71
13033;BME280;6583;42.632;23.298;2024-01-07T11:47:15;69310.66;;;-146.40;91.49
13033;BME280;6583;42.632;23.298;2024-01-07T11:49:42;69294.47;;;-146.40;90.42
13033;BME280;6583;42.632;23.298;2024-01-07T11:52:09;69288.41;;;-146.40;89.38
13033;BME280;6583;42.632;23.298;2024-01-07T11:54:36;69304.59;;;-146.40;89.68
13033;BME280;6583;42.632;23.298;2024-01-07T11:57:03;69302.56;;;-146.40;88.93
13033;BME280;6583;42.632;23.298;2024-01-07T11:59:30;69298.53;;;-146.40;91.26
13033;BME280;6583;42.632;23.298;2024-01-07T12:01:59;69304.59;;;-146.40;90.88
13033;BME280;6583;42.632;23.298;2024-01-07T12:04:26;69308.63;;;-146.40;91.47
13033;BME280;6583;42.632;23.298;2024-01-07T12:06:53;69296.50;;;-146.40;92.73
13033;BME280;6583;42.632;23.298;2024-01-07T12:09:20;69298.53;;;-146.40;91.89
13033;BME280;6583;42.632;23.298;2024-01-07T12:11:47;69284.38;;;-146.40;91.32
13033;BME280;6583;42.632;23.298;2024-01-07T12:14:14;69294.47;;;-146.40;91.70
13033;BME280;6583;42.632;23.298;2024-01-07T12:16:40;69298.53;;;-146.40;91.29
13033;BME280;6583;42.632;23.298;2024-01-07T12:19:09;69278.31;;;-146.40;91.28
13033;BME280;6583;42.632;23.298;2024-01-07T12:21:36;69284.38;;;-146.40;90.70
13033;BME280;6583;42.632;23.298;2024-01-07T12:24:03;69286.41;;;-146.40;91.17
13033;BME280;6583;42.632;23.298;2024-01-07T12:26:30;69278.31;;;-146.40;89.47
13033;BME280;6583;42.632;23.298;2024-01-07T12:28:59;69278.31;;;-146.40;88.34
13033;BME280;6583;42.632;23.298;2024-01-07T12:31:29;69276.28;;;-146.40;86.44
13033;BME280;6583;42.632;23.298;2024-01-07T12:33:56;69284.38;;;-146.40;82.91
13033;BME280;6583;42.632;23.298;2024-01-07T12:36:24;69290.44;;;-146.40;82.19